sensor_id;sensor_type;location;lat;lon;timestamp;pressure;altitude;pressure_sealevel;temperature;humidity
62548;BME280;48602;45.192;5.722;2022-10-17T00:00:52;99790.81;;;17.68;72.58
62548;BME280;48602;45.192;5.722;2022-10-17T00:03:18;99787.28;;;17.67;72.31
62548;BME280;48602;45.192;5.722;2022-10-17T00:05:45;99793.66;;;17.65;71.56
62548;BME280;48602;45.192;5.722;2022-10-17T00:08:13;99794.66;;;17.62;71.65
62548;BME280;48602;45.192;5.722;2022-10-17T00:10:39;99805.41;;;17.61;71.26
62548;BME280;48602;45.192;5.722;2022-10-17T00:13:05;99802.75;;;17.61;70.24
62548;BME280;48602;45.192;5.722;2022-10-17T00:15:31;99794.09;;;17.57;69.86
62548;BME280;48602;45.192;5.722;2022-10-17T00:17:57;99798.63;;;17.55;69.51
62548;BME280;48602;45.192;5.722;2022-10-17T00:20:23;99812.16;;;17.52;68.94
62548;BME280;48602;45.192;5.722;2022-10-17T00:22:48;99807.75;;;17.51;69.71
62548;BME280;48602;45.192;5.722;2022-10-17T00:25:14;99813.25;;;17.48;69.12
62548;BME280;48602;45.192;5.722;2022-10-17T00:27:40;99808.09;;;17.45;68.90
62548;BME280;48602;45.192;5.722;2022-10-17T00:30:09;99816.19;;;17.43;68.72
62548;BME280;48602;45.192;5.722;2022-10-17T00:32:35;99806.50;;;17.42;69.13
62548;BME280;48602;45.192;5.722;2022-10-17T00:35:00;99811.91;;;17.41;68.76
62548;BME280;48602;45.192;5.722;2022-10-17T00:37:26;99823.50;;;17.40;68.71
62548;BME280;48602;45.192;5.722;2022-10-17T00:39:52;99824.47;;;17.39;69.17
62548;BME280;48602;45.192;5.722;2022-10-17T00:42:18;99822.66;;;17.39;68.41
62548;BME280;48602;45.192;5.722;2022-10-17T00:47:15;99826.25;;;17.38;68.23
62548;BME280;48602;45.192;5.722;2022-10-17T00:49:41;99830.81;;;17.36;68.14
62548;BME280;48602;45.192;5.722;2022-10-17T00:52:21;99832.63;;;17.36;68.29
62548;BME280;48602;45.192;5.722;2022-10-17T00:54:52;99832.72;;;17.34;68.36
62548;BME280;48602;45.192;5.722;2022-10-17T00:57:18;99826.59;;;17.32;68.63
62548;BME280;48602;45.192;5.722;2022-10-17T00:59:48;99824.97;;;17.30;69.66
62548;BME280;48602;45.192;5.722;2022-10-17T01:02:18;99818.19;;;17.24;69.65
62548;BME280;48602;45.192;5.722;2022-10-17T01:04:47;99827.13;;;17.23;69.84
62548;BME280;48602;45.192;5.722;2022-10-17T01:07:12;99823.69;;;17.21;69.60
62548;BME280;48602;45.192;5.722;2022-10-17T01:09:39;99825.41;;;17.22;69.79
62548;BME280;48602;45.192;5.722;2022-10-17T01:17:09;99831.75;;;17.20;70.07
62548;BME280;48602;45.192;5.722;2022-10-17T01:22:39;99832.88;;;17.16;69.81
62548;BME280;48602;45.192;5.722;2022-10-17T01:31:14;99838.72;;;17.06;70.67
62548;BME280;48602;45.192;5.722;2022-10-17T01:33:59;99850.31;;;17.05;70.98
62548;BME280;48602;45.192;5.722;2022-10-17T01:36:38;99850.50;;;17.02;71.30
62548;BME280;48602;45.192;5.722;2022-10-17T01:39:57;99850.97;;;16.93;71.42
62548;BME280;48602;45.192;5.722;2022-10-17T01:47:17;99845.53;;;16.79;73.83
62548;BME280;48602;45.192;5.722;2022-10-17T01:49:45;99851.81;;;16.78;73.55
62548;BME280;48602;45.192;5.722;2022-10-17T01:52:17;99851.88;;;16.77;74.32
62548;BME280;48602;45.192;5.722;2022-10-17T01:54:54;99854.81;;;16.72;74.80
62548;BME280;48602;45.192;5.722;2022-10-17T01:57:34;99842.53;;;16.69;75.08
62548;BME280;48602;45.192;5.722;2022-10-17T02:00:04;99847.00;;;16.69;74.42
62548;BME280;48602;45.192;5.722;2022-10-17T02:02:31;99844.31;;;16.69;74.89
62548;BME280;48602;45.192;5.722;2022-10-17T02:04:58;99853.25;;;16.68;75.71
62548;BME280;48602;45.192;5.722;2022-10-17T02:07:25;99848.09;;;16.65;75.58
62548;BME280;48602;45.192;5.722;2022-10-17T02:09:51;99842.88;;;16.62;75.41
62548;BME280;48602;45.192;5.722;2022-10-17T02:15:09;99836.88;;;16.58;75.37
62548;BME280;48602;45.192;5.722;2022-10-17T02:17:44;99841.34;;;16.58;75.24
62548;BME280;48602;45.192;5.722;2022-10-17T02:24:23;99838.94;;;16.53;74.93
62548;BME280;48602;45.192;5.722;2022-10-17T02:29:23;99839.94;;;16.51;73.35
62548;BME280;48602;45.192;5.722;2022-10-17T02:31:57;99831.97;;;16.51;73.04
62548;BME280;48602;45.192;5.722;2022-10-17T02:34:32;99837.38;;;16.49;73.91
62548;BME280;48602;45.192;5.722;2022-10-17T02:37:04;99849.03;;;16.47;73.49
62548;BME280;48602;45.192;5.722;2022-10-17T02:39:31;99839.47;;;16.42;74.89
62548;BME280;48602;45.192;5.722;2022-10-17T02:42:01;99841.53;;;16.37;74.96
62548;BME280;48602;45.192;5.722;2022-10-17T02:44:29;99847.00;;;16.34;74.70
62548;BME280;48602;45.192;5.722;2022-10-17T02:47:02;99837.31;;;16.33;75.48
62548;BME280;48602;45.192;5.722;2022-10-17T02:49:36;99838.16;;;16.34;76.10
62548;BME280;48602;45.192;5.722;2022-10-17T02:52:11;99839.19;;;16.31;75.70
62548;BME280;48602;45.192;5.722;2022-10-17T02:54:42;99843.78;;;16.28;75.57
62548;BME280;48602;45.192;5.722;2022-10-17T02:57:15;99842.19;;;16.25;75.65
62548;BME280;48602;45.192;5.722;2022-10-17T02:59:44;99835.28;;;16.21;74.86
62548;BME280;48602;45.192;5.722;2022-10-17T03:02:10;99846.09;;;16.18;75.57
62548;BME280;48602;45.192;5.722;2022-10-17T03:04:36;99836.31;;;16.19;75.18
62548;BME280;48602;45.192;5.722;2022-10-17T03:07:02;99844.38;;;16.17;75.99
62548;BME280;48602;45.192;5.722;2022-10-17T03:09:27;99847.09;;;16.16;76.05
62548;BME280;48602;45.192;5.722;2022-10-17T03:11:53;99846.38;;;16.12;76.77
62548;BME280;48602;45.192;5.722;2022-10-17T03:14:18;99858.03;;;16.10;76.39
62548;BME280;48602;45.192;5.722;2022-10-17T03:16:44;99861.66;;;16.09;76.46
62548;BME280;48602;45.192;5.722;2022-10-17T03:19:09;99859.94;;;16.08;76.41
62548;BME280;48602;45.192;5.722;2022-10-17T03:21:35;99852.19;;;16.03;75.97
62548;BME280;48602;45.192;5.722;2022-10-17T03:24:03;99859.38;;;16.01;76.26
62548;BME280;48602;45.192;5.722;2022-10-17T03:26:29;99860.31;;;16.00;76.47
62548;BME280;48602;45.192;5.722;2022-10-17T03:28:55;99866.50;;;16.00;76.06
62548;BME280;48602;45.192;5.722;2022-10-17T03:31:21;99869.22;;;15.99;76.32
62548;BME280;48602;45.192;5.722;2022-10-17T03:33:47;99859.53;;;15.98;76.10
62548;BME280;48602;45.192;5.722;2022-10-17T03:36:15;99868.44;;;15.97;75.67
62548;BME280;48602;45.192;5.722;2022-10-17T03:38:41;99872.13;;;15.94;75.70
62548;BME280;48602;45.192;5.722;2022-10-17T03:41:07;99861.56;;;15.93;75.63
62548;BME280;48602;45.192;5.722;2022-10-17T03:43:33;99871.31;;;15.92;75.45
62548;BME280;48602;45.192;5.722;2022-10-17T03:45:59;99877.63;;;15.91;75.79
62548;BME280;48602;45.192;5.722;2022-10-17T03:48:26;99871.50;;;15.89;76.02
62548;BME280;48602;45.192;5.722;2022-10-17T03:50:51;99880.41;;;15.88;75.79
62548;BME280;48602;45.192;5.722;2022-10-17T03:53:17;99880.50;;;15.87;76.24
62548;BME280;48602;45.192;5.722;2022-10-17T03:55:42;99871.72;;;15.85;75.95
62548;BME280;48602;45.192;5.722;2022-10-17T03:58:08;99881.44;;;15.86;76.45
62548;BME280;48602;45.192;5.722;2022-10-17T04:00:35;99872.53;;;15.87;75.75
62548;BME280;48602;45.192;5.722;2022-10-17T04:03:00;99881.44;;;15.86;75.66
62548;BME280;48602;45.192;5.722;2022-10-17T04:05:25;99874.47;;;15.83;75.91
62548;BME280;48602;45.192;5.722;2022-10-17T04:07:51;99885.16;;;15.82;75.87
62548;BME280;48602;45.192;5.722;2022-10-17T04:10:16;99887.03;;;15.80;76.00
62548;BME280;48602;45.192;5.722;2022-10-17T04:12:41;99891.50;;;15.79;76.29
62548;BME280;48602;45.192;5.722;2022-10-17T04:15:08;99895.94;;;15.79;76.55
62548;BME280;48602;45.192;5.722;2022-10-17T04:17:33;99893.34;;;15.77;76.54
62548;BME280;48602;45.192;5.722;2022-10-17T04:19:58;99893.34;;;15.77;76.17
62548;BME280;48602;45.192;5.722;2022-10-17T04:22:24;99902.28;;;15.76;76.26
62548;BME280;48602;45.192;5.722;2022-10-17T04:24:49;99912.03;;;15.76;76.13
62548;BME280;48602;45.192;5.722;2022-10-17T04:27:14;99911.22;;;15.75;76.43
62548;BME280;48602;45.192;5.722;2022-10-17T04:29:40;99910.34;;;15.75;76.02
62548;BME280;48602;45.192;5.722;2022-10-17T04:32:06;99917.53;;;15.73;76.25
62548;BME280;48602;45.192;5.722;2022-10-17T04:34:31;99918.69;;;15.67;76.87
62548;BME280;48602;45.192;5.722;2022-10-17T04:36:57;99924.06;;;15.65;76.53
62548;BME280;48602;45.192;5.722;2022-10-17T04:39:22;99919.81;;;15.61;77.44
62548;BME280;48602;45.192;5.722;2022-10-17T04:41:47;99923.59;;;15.57;77.55
62548;BME280;48602;45.192;5.722;2022-10-17T04:44:13;99923.66;;;15.56;78.87
62548;BME280;48602;45.192;5.722;2022-10-17T04:46:38;99929.00;;;15.54;79.55
62548;BME280;48602;45.192;5.722;2022-10-17T04:49:04;99931.75;;;15.53;79.87
62548;BME280;48602;45.192;5.722;2022-10-17T04:51:29;99926.50;;;15.51;80.32
62548;BME280;48602;45.192;5.722;2022-10-17T04:53:54;99929.28;;;15.48;79.93
62548;BME280;48602;45.192;5.722;2022-10-17T04:56:21;99928.44;;;15.48;80.50
62548;BME280;48602;45.192;5.722;2022-10-17T04:58:48;99929.44;;;15.45;79.57
62548;BME280;48602;45.192;5.722;2022-10-17T05:01:16;99938.50;;;15.41;80.24
62548;BME280;48602;45.192;5.722;2022-10-17T05:03:42;99928.88;;;15.39;80.14
62548;BME280;48602;45.192;5.722;2022-10-17T05:06:22;99942.31;;;15.35;79.67
62548;BME280;48602;45.192;5.722;2022-10-17T05:08:48;99946.75;;;15.35;80.09
62548;BME280;48602;45.192;5.722;2022-10-17T05:11:34;99949.41;;;15.35;79.62
62548;BME280;48602;45.192;5.722;2022-10-17T05:14:00;99945.81;;;15.36;79.50
62548;BME280;48602;45.192;5.722;2022-10-17T05:16:27;99939.56;;;15.37;79.15
62548;BME280;48602;45.192;5.722;2022-10-17T05:18:55;99943.09;;;15.38;79.33
62548;BME280;48602;45.192;5.722;2022-10-17T05:21:22;99938.66;;;15.38;79.57
62548;BME280;48602;45.192;5.722;2022-10-17T05:23:48;99941.22;;;15.40;78.85
62548;BME280;48602;45.192;5.722;2022-10-17T05:26:14;99948.28;;;15.41;79.16
62548;BME280;48602;45.192;5.722;2022-10-17T05:28:39;99953.41;;;15.44;78.95
62548;BME280;48602;45.192;5.722;2022-10-17T05:31:06;99948.97;;;15.44;79.14
62548;BME280;48602;45.192;5.722;2022-10-17T05:33:32;99955.16;;;15.45;78.89
62548;BME280;48602;45.192;5.722;2022-10-17T05:35:58;99963.03;;;15.46;78.82
62548;BME280;48602;45.192;5.722;2022-10-17T05:38:24;99961.31;;;15.45;78.80
62548;BME280;48602;45.192;5.722;2022-10-17T05:40:50;99961.31;;;15.45;78.73
62548;BME280;48602;45.192;5.722;2022-10-17T05:43:15;99964.91;;;15.44;78.59
62548;BME280;48602;45.192;5.722;2022-10-17T05:45:41;99962.31;;;15.43;78.30
62548;BME280;48602;45.192;5.722;2022-10-17T05:48:06;99967.81;;;15.40;79.05
62548;BME280;48602;45.192;5.722;2022-10-17T05:50:33;99957.25;;;15.38;78.71
62548;BME280;48602;45.192;5.722;2022-10-17T05:52:59;99965.22;;;15.38;78.71
62548;BME280;48602;45.192;5.722;2022-10-17T05:55:24;99960.84;;;15.37;78.68
62548;BME280;48602;45.192;5.722;2022-10-17T05:57:49;99964.34;;;15.38;78.48
62548;BME280;48602;45.192;5.722;2022-10-17T06:00:17;99967.88;;;15.38;78.58
62548;BME280;48602;45.192;5.722;2022-10-17T06:02:43;99980.22;;;15.39;78.34
62548;BME280;48602;45.192;5.722;2022-10-17T06:05:10;99987.16;;;15.42;77.85
62548;BME280;48602;45.192;5.722;2022-10-17T06:07:36;99989.75;;;15.43;78.50
62548;BME280;48602;45.192;5.722;2022-10-17T06:10:01;99988.91;;;15.43;78.84
62548;BME280;48602;45.192;5.722;2022-10-17T06:12:26;99997.72;;;15.43;79.04
62548;BME280;48602;45.192;5.722;2022-10-17T06:14:52;100002.03;;;15.46;78.83
62548;BME280;48602;45.192;5.722;2022-10-17T06:17:17;100004.63;;;15.47;79.66
62548;BME280;48602;45.192;5.722;2022-10-17T06:19:42;100009.03;;;15.48;79.38
62548;BME280;48602;45.192;5.722;2022-10-17T06:22:08;100013.41;;;15.49;79.50
62548;BME280;48602;45.192;5.722;2022-10-17T06:24:34;100013.25;;;15.52;79.97
62548;BME280;48602;45.192;5.722;2022-10-17T06:26:59;100015.94;;;15.52;80.39
62548;BME280;48602;45.192;5.722;2022-10-17T06:29:25;100022.97;;;15.53;79.86
62548;BME280;48602;45.192;5.722;2022-10-17T06:31:50;100026.50;;;15.54;79.64
62548;BME280;48602;45.192;5.722;2022-10-17T06:34:16;100026.44;;;15.55;79.50
62548;BME280;48602;45.192;5.722;2022-10-17T06:36:41;100029.81;;;15.59;79.22
62548;BME280;48602;45.192;5.722;2022-10-17T06:39:06;100038.50;;;15.62;78.95
62548;BME280;48602;45.192;5.722;2022-10-17T06:41:32;100041.03;;;15.65;78.18
62548;BME280;48602;45.192;5.722;2022-10-17T06:43:57;100047.06;;;15.69;78.13
62548;BME280;48602;45.192;5.722;2022-10-17T06:46:23;100056.66;;;15.73;77.66
62548;BME280;48602;45.192;5.722;2022-10-17T06:48:51;100051.16;;;15.76;77.92
62548;BME280;48602;45.192;5.722;2022-10-17T06:51:16;100058.06;;;15.80;77.84
62548;BME280;48602;45.192;5.722;2022-10-17T06:53:42;100058.72;;;15.85;77.60
62548;BME280;48602;45.192;5.722;2022-10-17T06:56:08;100065.56;;;15.91;77.20
62548;BME280;48602;45.192;5.722;2022-10-17T06:58:36;100067.91;;;15.97;77.46
62548;BME280;48602;45.192;5.722;2022-10-17T07:01:08;100072.97;;;16.03;77.40
62548;BME280;48602;45.192;5.722;2022-10-17T07:03:34;100073.63;;;16.08;76.73
62548;BME280;48602;45.192;5.722;2022-10-17T07:06:00;100077.84;;;16.12;76.71
62548;BME280;48602;45.192;5.722;2022-10-17T07:08:26;100080.28;;;16.17;76.27
62548;BME280;48602;45.192;5.722;2022-10-17T07:10:52;100081.88;;;16.21;76.24
62548;BME280;48602;45.192;5.722;2022-10-17T07:13:18;100091.44;;;16.25;75.58
62548;BME280;48602;45.192;5.722;2022-10-17T07:15:44;100088.59;;;16.28;75.72
62548;BME280;48602;45.192;5.722;2022-10-17T07:18:10;100096.44;;;16.31;75.50
62548;BME280;48602;45.192;5.722;2022-10-17T07:20:36;100101.69;;;16.32;75.10
62548;BME280;48602;45.192;5.722;2022-10-17T07:23:01;100100.69;;;16.35;74.70
62548;BME280;48602;45.192;5.722;2022-10-17T07:25:27;100100.63;;;16.36;74.64
62548;BME280;48602;45.192;5.722;2022-10-17T07:27:52;100090.69;;;16.40;74.85
62548;BME280;48602;45.192;5.722;2022-10-17T07:30:19;100104.63;;;16.45;74.50
62548;BME280;48602;45.192;5.722;2022-10-17T07:32:45;100107.06;;;16.50;74.17
62548;BME280;48602;45.192;5.722;2022-10-17T07:35:11;100110.38;;;16.55;73.62
62548;BME280;48602;45.192;5.722;2022-10-17T07:37:37;100112.78;;;16.59;73.52
62548;BME280;48602;45.192;5.722;2022-10-17T07:40:04;100115.31;;;16.62;73.59
62548;BME280;48602;45.192;5.722;2022-10-17T07:42:30;100117.78;;;16.67;73.11
62548;BME280;48602;45.192;5.722;2022-10-17T07:44:56;100122.03;;;16.71;72.96
62548;BME280;48602;45.192;5.722;2022-10-17T07:47:21;100125.31;;;16.76;72.62
62548;BME280;48602;45.192;5.722;2022-10-17T07:49:46;100128.75;;;16.78;72.70
62548;BME280;48602;45.192;5.722;2022-10-17T07:52:13;100129.41;;;16.83;72.35
62548;BME280;48602;45.192;5.722;2022-10-17T07:54:39;100122.06;;;16.88;72.46
62548;BME280;48602;45.192;5.722;2022-10-17T07:57:05;100129.72;;;16.94;72.74
62548;BME280;48602;45.192;5.722;2022-10-17T07:59:32;100123.16;;;17.01;72.66
62548;BME280;48602;45.192;5.722;2022-10-17T08:01:58;100124.59;;;17.08;72.00
62548;BME280;48602;45.192;5.722;2022-10-17T08:04:24;100131.31;;;17.16;72.16
62548;BME280;48602;45.192;5.722;2022-10-17T08:06:50;100122.94;;;17.23;71.91
62548;BME280;48602;45.192;5.722;2022-10-17T08:09:15;100125.19;;;17.31;71.45
62548;BME280;48602;45.192;5.722;2022-10-17T08:11:41;100123.09;;;17.37;71.47
62548;BME280;48602;45.192;5.722;2022-10-17T08:14:11;100116.47;;;17.44;71.35
62548;BME280;48602;45.192;5.722;2022-10-17T08:16:36;100111.63;;;17.53;70.89
62548;BME280;48602;45.192;5.722;2022-10-17T08:19:02;100104.16;;;17.59;70.78
62548;BME280;48602;45.192;5.722;2022-10-17T08:21:28;100114.53;;;17.65;70.56
62548;BME280;48602;45.192;5.722;2022-10-17T08:23:54;100121.13;;;17.75;70.56
62548;BME280;48602;45.192;5.722;2022-10-17T08:26:19;100110.94;;;17.82;70.50
62548;BME280;48602;45.192;5.722;2022-10-17T08:28:45;100115.97;;;17.88;70.40
62548;BME280;48602;45.192;5.722;2022-10-17T08:31:14;100110.28;;;17.94;69.88
62548;BME280;48602;45.192;5.722;2022-10-17T08:33:40;100116.06;;;18.02;69.76
62548;BME280;48602;45.192;5.722;2022-10-17T08:36:07;100103.28;;;18.09;69.07
62548;BME280;48602;45.192;5.722;2022-10-17T08:38:34;100117.19;;;18.14;69.15
62548;BME280;48602;45.192;5.722;2022-10-17T08:41:04;100116.88;;;18.20;68.95
62548;BME280;48602;45.192;5.722;2022-10-17T08:43:40;100115.69;;;18.26;68.27
62548;BME280;48602;45.192;5.722;2022-10-17T08:46:10;100116.25;;;18.31;67.49
62548;BME280;48602;45.192;5.722;2022-10-17T08:48:42;100120.41;;;18.36;67.43
62548;BME280;48602;45.192;5.722;2022-10-17T08:51:28;100111.94;;;18.44;66.97
62548;BME280;48602;45.192;5.722;2022-10-17T08:54:04;100101.88;;;18.49;66.81
62548;BME280;48602;45.192;5.722;2022-10-17T08:56:39;100103.44;;;18.53;66.59
62548;BME280;48602;45.192;5.722;2022-10-17T08:59:14;100103.19;;;18.58;66.96
62548;BME280;48602;45.192;5.722;2022-10-17T09:01:49;100110.84;;;18.64;66.40
62548;BME280;48602;45.192;5.722;2022-10-17T09:04:20;100109.72;;;18.68;66.24
62548;BME280;48602;45.192;5.722;2022-10-17T09:07:18;100098.88;;;18.71;66.01
62548;BME280;48602;45.192;5.722;2022-10-17T09:18:10;100093.75;;;18.82;65.74
62548;BME280;48602;45.192;5.722;2022-10-17T09:20:58;100085.31;;;18.90;65.19
62548;BME280;48602;45.192;5.722;2022-10-17T09:23:45;100085.00;;;18.94;65.13
62548;BME280;48602;45.192;5.722;2022-10-17T09:26:11;100079.31;;;19.00;65.07
62548;BME280;48602;45.192;5.722;2022-10-17T09:28:39;100084.31;;;19.06;65.59
62548;BME280;48602;45.192;5.722;2022-10-17T09:31:25;100074.09;;;19.13;65.31
62548;BME280;48602;45.192;5.722;2022-10-17T09:33:55;100074.41;;;19.23;65.62
62548;BME280;48602;45.192;5.722;2022-10-17T09:36:35;100080.16;;;19.31;65.35
62548;BME280;48602;45.192;5.722;2022-10-17T09:39:11;100084.94;;;19.40;65.37
62548;BME280;48602;45.192;5.722;2022-10-17T09:41:49;100078.25;;;19.47;65.59
62548;BME280;48602;45.192;5.722;2022-10-17T09:46:45;100089.00;;;19.61;65.73
62548;BME280;48602;45.192;5.722;2022-10-17T09:49:17;100081.47;;;19.68;65.02
62548;BME280;48602;45.192;5.722;2022-10-17T09:51:44;100074.09;;;19.71;65.26
62548;BME280;48602;45.192;5.722;2022-10-17T09:54:21;100081.09;;;19.74;65.20
62548;BME280;48602;45.192;5.722;2022-10-17T09:57:01;100078.31;;;19.75;65.26
62548;BME280;48602;45.192;5.722;2022-10-17T09:59:33;100072.00;;;19.76;64.99
62548;BME280;48602;45.192;5.722;2022-10-17T10:04:57;100063.31;;;19.87;65.16
62548;BME280;48602;45.192;5.722;2022-10-17T10:07:28;100071.03;;;19.92;64.72
62548;BME280;48602;45.192;5.722;2022-10-17T10:09:54;100056.59;;;19.94;64.14
62548;BME280;48602;45.192;5.722;2022-10-17T10:12:30;100071.59;;;19.97;64.27
62548;BME280;48602;45.192;5.722;2022-10-17T10:14:56;100061.66;;;19.99;63.79
62548;BME280;48602;45.192;5.722;2022-10-17T10:19:53;100064.13;;;20.02;63.33
62548;BME280;48602;45.192;5.722;2022-10-17T10:22:21;100068.53;;;20.03;64.28
62548;BME280;48602;45.192;5.722;2022-10-17T10:27:39;100056.09;;;20.02;65.11
62548;BME280;48602;45.192;5.722;2022-10-17T10:30:05;100062.59;;;19.98;65.50
62548;BME280;48602;45.192;5.722;2022-10-17T10:32:34;100064.50;;;19.96;66.28
62548;BME280;48602;45.192;5.722;2022-10-17T10:35:05;100060.03;;;19.96;66.70
62548;BME280;48602;45.192;5.722;2022-10-17T10:37:38;100066.13;;;19.98;66.06
62548;BME280;48602;45.192;5.722;2022-10-17T10:40:05;100055.16;;;20.03;66.32
62548;BME280;48602;45.192;5.722;2022-10-17T10:42:36;100056.69;;;20.07;66.72
62548;BME280;48602;45.192;5.722;2022-10-17T10:45:23;100060.56;;;20.15;67.30
62548;BME280;48602;45.192;5.722;2022-10-17T10:47:58;100059.13;;;20.24;66.14
62548;BME280;48602;45.192;5.722;2022-10-17T10:55:33;100052.38;;;20.45;65.40
62548;BME280;48602;45.192;5.722;2022-10-17T10:58:05;100043.66;;;20.56;65.61
62548;BME280;48602;45.192;5.722;2022-10-17T11:00:36;100047.31;;;20.68;65.19
62548;BME280;48602;45.192;5.722;2022-10-17T11:03:25;100053.81;;;20.78;64.62
62548;BME280;48602;45.192;5.722;2022-10-17T11:05:53;100044.81;;;20.92;64.80
62548;BME280;48602;45.192;5.722;2022-10-17T11:08:27;100037.00;;;21.01;64.55
62548;BME280;48602;45.192;5.722;2022-10-17T11:11:13;100027.13;;;21.14;64.43
62548;BME280;48602;45.192;5.722;2022-10-17T11:13:57;100031.47;;;21.30;64.31
62548;BME280;48602;45.192;5.722;2022-10-17T11:16:41;100026.13;;;21.42;63.11
62548;BME280;48602;45.192;5.722;2022-10-17T11:19:30;100014.63;;;21.53;61.82
62548;BME280;48602;45.192;5.722;2022-10-17T11:22:20;100026.19;;;21.66;61.22
62548;BME280;48602;45.192;5.722;2022-10-17T11:25:32;100022.88;;;21.75;61.43
62548;BME280;48602;45.192;5.722;2022-10-17T11:27:44;100021.22;;;21.85;60.75
62548;BME280;48602;45.192;5.722;2022-10-17T11:30:16;100015.22;;;21.94;59.56
62548;BME280;48602;45.192;5.722;2022-10-17T11:32:45;100008.44;;;22.02;58.48
62548;BME280;48602;45.192;5.722;2022-10-17T11:37:41;100003.75;;;22.16;58.00
62548;BME280;48602;45.192;5.722;2022-10-17T11:40:24;99999.56;;;22.25;57.18
62548;BME280;48602;45.192;5.722;2022-10-17T11:43:12;100009.81;;;22.31;57.44
62548;BME280;48602;45.192;5.722;2022-10-17T11:45:45;100000.22;;;22.40;56.92
62548;BME280;48602;45.192;5.722;2022-10-17T11:48:22;99997.81;;;22.48;55.98
62548;BME280;48602;45.192;5.722;2022-10-17T11:50:59;99991.13;;;22.53;55.58
62548;BME280;48602;45.192;5.722;2022-10-17T11:54:01;99983.34;;;22.61;55.44
62548;BME280;48602;45.192;5.722;2022-10-17T11:59:39;99979.41;;;22.78;57.14
62548;BME280;48602;45.192;5.722;2022-10-17T12:12:54;99960.63;;;23.01;56.88
62548;BME280;48602;45.192;5.722;2022-10-17T12:17:49;99963.81;;;23.17;56.30
62548;BME280;48602;45.192;5.722;2022-10-17T12:22:50;99963.84;;;23.39;55.93
62548;BME280;48602;45.192;5.722;2022-10-17T12:25:23;99962.13;;;23.49;55.50
62548;BME280;48602;45.192;5.722;2022-10-17T12:28:09;99959.84;;;23.56;54.65
62548;BME280;48602;45.192;5.722;2022-10-17T12:30:36;99954.66;;;23.64;54.88
62548;BME280;48602;45.192;5.722;2022-10-17T12:35:39;99944.38;;;23.80;54.31
62548;BME280;48602;45.192;5.722;2022-10-17T12:45:58;99935.31;;;23.92;53.45
62548;BME280;48602;45.192;5.722;2022-10-17T12:51:18;99925.13;;;23.96;53.32
62548;BME280;48602;45.192;5.722;2022-10-17T12:54:14;99933.66;;;24.01;52.23
62548;BME280;48602;45.192;5.722;2022-10-17T12:56:43;99931.97;;;24.00;51.85
62548;BME280;48602;45.192;5.722;2022-10-17T12:59:28;99936.50;;;23.99;51.80
62548;BME280;48602;45.192;5.722;2022-10-17T13:01:58;99934.66;;;24.00;50.89
62548;BME280;48602;45.192;5.722;2022-10-17T13:04:25;99922.03;;;24.00;51.59
62548;BME280;48602;45.192;5.722;2022-10-17T13:06:53;99922.03;;;24.00;51.02
62548;BME280;48602;45.192;5.722;2022-10-17T13:09:28;99927.44;;;24.00;50.85
62548;BME280;48602;45.192;5.722;2022-10-17T13:11:55;99921.06;;;24.01;51.44
62548;BME280;48602;45.192;5.722;2022-10-17T13:14:23;99919.34;;;24.00;50.45
62548;BME280;48602;45.192;5.722;2022-10-17T13:16:55;99919.34;;;24.00;50.26
62548;BME280;48602;45.192;5.722;2022-10-17T13:19:24;99919.09;;;24.04;50.80
62548;BME280;48602;45.192;5.722;2022-10-17T13:24:30;99924.97;;;24.09;49.76
62548;BME280;48602;45.192;5.722;2022-10-17T13:26:56;99918.72;;;24.08;49.92
62548;BME280;48602;45.192;5.722;2022-10-17T13:29:21;99921.28;;;24.10;49.89
62548;BME280;48602;45.192;5.722;2022-10-17T13:31:58;99929.63;;;24.07;49.74
62548;BME280;48602;45.192;5.722;2022-10-17T13:34:26;99911.88;;;24.04;50.14
62548;BME280;48602;45.192;5.722;2022-10-17T13:36:55;99893.13;;;24.02;49.96
62548;BME280;48602;45.192;5.722;2022-10-17T13:39:23;99890.44;;;24.02;50.64
62548;BME280;48602;45.192;5.722;2022-10-17T13:41:51;99892.16;;;24.04;50.21
62548;BME280;48602;45.192;5.722;2022-10-17T13:44:23;99890.06;;;24.07;49.99
62548;BME280;48602;45.192;5.722;2022-10-17T13:46:50;99887.97;;;24.11;49.93
62548;BME280;48602;45.192;5.722;2022-10-17T13:51:53;99904.09;;;24.22;50.13
62548;BME280;48602;45.192;5.722;2022-10-17T13:56:59;99901.31;;;24.23;50.53
62548;BME280;48602;45.192;5.722;2022-10-17T13:59:32;99889.53;;;24.24;50.76
62548;BME280;48602;45.192;5.722;2022-10-17T14:01:59;99896.88;;;24.22;49.97
62548;BME280;48602;45.192;5.722;2022-10-17T14:04:26;99895.28;;;24.20;50.21
62548;BME280;48602;45.192;5.722;2022-10-17T14:06:51;99870.91;;;24.21;50.58
62548;BME280;48602;45.192;5.722;2022-10-17T14:11:43;99894.34;;;24.42;50.37
62548;BME280;48602;45.192;5.722;2022-10-17T14:14:22;99908.63;;;24.53;50.74
62548;BME280;48602;45.192;5.722;2022-10-17T14:16:49;99914.03;;;24.53;49.42
62548;BME280;48602;45.192;5.722;2022-10-17T14:19:34;99924.13;;;24.40;50.37
62548;BME280;48602;45.192;5.722;2022-10-17T14:24:45;99937.41;;;24.21;50.40
62548;BME280;48602;45.192;5.722;2022-10-17T14:29:56;99910.78;;;24.07;51.19
62548;BME280;48602;45.192;5.722;2022-10-17T14:32:26;99930.00;;;24.02;51.27
62548;BME280;48602;45.192;5.722;2022-10-17T14:34:54;99914.09;;;23.99;51.49
62548;BME280;48602;45.192;5.722;2022-10-17T14:40:20;99909.69;;;23.98;51.88
62548;BME280;48602;45.192;5.722;2022-10-17T14:42:48;99944.06;;;24.06;51.14
62548;BME280;48602;45.192;5.722;2022-10-17T14:45:23;99903.06;;;24.02;51.47
62548;BME280;48602;45.192;5.722;2022-10-17T14:47:51;99917.25;;;24.04;51.74
62548;BME280;48602;45.192;5.722;2022-10-17T14:50:22;99926.44;;;24.01;51.70
62548;BME280;48602;45.192;5.722;2022-10-17T14:53:04;99946.66;;;24.07;51.47
62548;BME280;48602;45.192;5.722;2022-10-17T14:55:32;99934.66;;;24.00;51.85